Swiftnes — H9RF — position and weather

sailwx.info

Track history (hours):
 
Tides and Currents Weather Stations Pressure Air Temp Water Temp Dewpoint Dewpoint Depression Visibility Wind Speed Wind Dir Waves Ship Positions

Swiftnes

Last reported at 2018-Apr-23 21:00 UTC. Time now 2018-Apr-23 21:25 UTC.
Position N 50°34' E 000°22'.

Length 177 m; draft 10.1 m.

Type: Cargo ship. MMSI: 374277000.

Date/timePositionNaut miles runAvg speedWind from/ knotsBaromVisibWave heightAir tempDewpointWater temp
2018-Apr-23 21:00N 50°34' E 000°22'611.7
2018-Apr-23 20:30N 50°36' E 000°30'611.2
2018-Apr-23 20:00N 50°38' E 000°39'611.1
2018-Apr-23 19:30N 50°42' E 000°45'510.7
2018-Apr-23 19:00N 50°45' E 000°52'510.4
2018-Apr-23 18:30N 50°48' E 000°59'17 9.7
2018-Apr-23 16:48N 50°59' E 001°18'3 9.4
2018-Apr-23 16:30N 51°01' E 001°21'510.1
2018-Apr-23 16:00N 51°04' E 001°28'510.9
2018-Apr-23 15:30N 51°07' E 001°35'611.5
2018-Apr-23 15:00N 51°11' E 001°42'612.1
2018-Apr-23 14:30N 51°16' E 001°48'612.9
2018-Apr-23 14:00N 51°22' E 001°53'713.1
2018-Apr-23 13:30N 51°27' E 001°58'613.0
2018-Apr-23 13:00N 51°32' E 002°05'612.6
2018-Apr-23 12:30N 51°37' E 002°12'612.3
2018-Apr-23 12:00N 51°41' E 002°18'611.9
2018-Apr-23 11:30N 51°46' E 002°25'611.5
2018-Apr-23 11:00N 51°50' E 002°31'14910.8
2018-Apr-22 21:11N 54°03' E 000°36'212.9
2018-Apr-22 21:00N 54°04' E 000°33'613.0
2018-Apr-22 20:30N 54°08' E 000°24'612.9
2018-Apr-22 20:00N 54°12' E 000°15'612.7
2018-Apr-22 19:30N 54°15' E 000°06'612.7
2018-Apr-22 19:00N 54°19' W 000°03'612.3
2018-Apr-22 18:30N 54°22' W 000°11'612.3
2018-Apr-22 18:00N 54°26' W 000°20'611.7
2018-Apr-22 17:30N 54°30' W 000°28'  
Track history (hours):
 
Tides and Currents Weather Stations Pressure Air Temp Water Temp Dewpoint Dewpoint Depression Visibility Wind Speed Wind Dir Waves Ship Positions

Swiftnes

Last reported at 2018-Apr-23 21:00 UTC. Time now 2018-Apr-23 21:25 UTC.
Position N 50°34' E 000°22'.

Length 177 m; draft 10.1 m.

Type: Cargo ship. MMSI: 374277000.

Date/timePositionNaut miles runAvg speedWind from/ knotsBaromVisibWave heightAir tempDewpointWater temp
2018-Apr-23 21:00N 50°34' E 000°22'611.7
2018-Apr-23 20:30N 50°36' E 000°30'611.2
2018-Apr-23 20:00N 50°38' E 000°39'611.1
2018-Apr-23 19:30N 50°42' E 000°45'510.7
2018-Apr-23 19:00N 50°45' E 000°52'510.4
2018-Apr-23 18:30N 50°48' E 000°59'17 9.7
2018-Apr-23 16:48N 50°59' E 001°18'3 9.4
2018-Apr-23 16:30N 51°01' E 001°21'510.1
2018-Apr-23 16:00N 51°04' E 001°28'510.9
2018-Apr-23 15:30N 51°07' E 001°35'611.5
2018-Apr-23 15:00N 51°11' E 001°42'612.1
2018-Apr-23 14:30N 51°16' E 001°48'612.9
2018-Apr-23 14:00N 51°22' E 001°53'713.1
2018-Apr-23 13:30N 51°27' E 001°58'613.0
2018-Apr-23 13:00N 51°32' E 002°05'612.6
2018-Apr-23 12:30N 51°37' E 002°12'612.3
2018-Apr-23 12:00N 51°41' E 002°18'611.9
2018-Apr-23 11:30N 51°46' E 002°25'611.5
2018-Apr-23 11:00N 51°50' E 002°31'14910.8
2018-Apr-22 21:11N 54°03' E 000°36'212.9
2018-Apr-22 21:00N 54°04' E 000°33'613.0
2018-Apr-22 20:30N 54°08' E 000°24'612.9
2018-Apr-22 20:00N 54°12' E 000°15'612.7
2018-Apr-22 19:30N 54°15' E 000°06'612.7
2018-Apr-22 19:00N 54°19' W 000°03'612.3
2018-Apr-22 18:30N 54°22' W 000°11'612.3
2018-Apr-22 18:00N 54°26' W 000°20'611.7
2018-Apr-22 17:30N 54°30' W 000°28'  

Dump ship's entire track history